Time;durP1;ratioP1;P1;durP2;ratioP2;P2;SDS_P1;SDS_P2;PMS_P1;PMS_P2;Temp;Humidity;BMP_temperature;BMP_pressure;BME280_temperature;BME280_humidity;BME280_pressure;Samples;Min_cycle;Max_cycle;Signal;HPM_P1;HPM_P2
2021/04/11 00:01:44;;;;;;;57.70;41.47;;;;;;;9.54;74.84;100316.47;5072038;28;20024;-67
2021/04/11 00:04:10;;;;;;;56.53;41.50;;;;;;;8.91;76.01;100323.19;5072429;28;20055;-66
2021/04/11 00:06:35;;;;;;;56.38;40.47;;;;;;;9.13;78.66;100323.03;5071725;28;20503;-67
2021/04/11 00:09:01;;;;;;;58.92;42.83;;;;;;;8.46;76.80;100324.34;5072218;28;20097;-66
2021/04/11 00:11:26;;;;;;;58.88;41.78;;;;;;;7.69;80.95;100331.66;5083920;28;20033;-66
2021/04/11 00:13:54;;;;;;;51.22;40.00;;;;;;;7.95;80.62;100325.47;5069149;28;20024;-66
2021/04/11 00:16:19;;;;;;;53.75;41.85;;;;;;;8.55;79.23;100308.56;5071323;28;20115;-66
2021/04/11 00:18:44;;;;;;;57.38;42.58;;;;;;;8.96;75.18;100302.97;5070315;28;20104;-68
2021/04/11 00:21:10;;;;;;;52.53;40.25;;;;;;;8.73;77.85;100296.13;5071050;28;20070;-66
2021/04/11 00:23:36;;;;;;;59.33;42.83;;;;;;;9.31;77.70;100293.03;5086885;28;20044;-66
2021/04/11 00:26:02;;;;;;;57.08;42.38;;;;;;;9.67;74.64;100293.50;5078791;28;20055;-66
2021/04/11 00:28:28;;;;;;;61.25;42.28;;;;;;;9.44;73.38;100299.91;5069845;28;20021;-67
2021/04/11 00:30:53;;;;;;;60.20;44.47;;;;;;;10.04;73.51;100289.53;5070699;28;20038;-66
2021/04/11 00:33:25;;;;;;;56.20;42.63;;;;;;;10.37;69.90;100286.50;5071966;28;20024;-66
2021/04/11 00:35:59;;;;;;;62.13;44.38;;;;;;;10.04;70.21;100283.44;5071299;28;20028;-66
2021/04/11 00:38:25;;;;;;;59.22;44.53;;;;;;;10.46;69.25;100274.94;5081594;28;20032;-66
2021/04/11 00:40:51;;;;;;;57.72;45.08;;;;;;;10.87;67.52;100265.50;5069835;28;20471;-66
2021/04/11 00:43:18;;;;;;;62.70;44.85;;;;;;;10.61;68.21;100266.81;5070378;28;20035;-66
2021/04/11 00:45:46;;;;;;;59.92;43.28;;;;;;;10.23;69.66;100263.81;5070434;28;20020;-66
2021/04/11 00:48:13;;;;;;;59.13;43.80;;;;;;;10.31;69.25;100252.31;5071870;28;20418;-66
2021/04/11 00:50:39;;;;;;;61.20;46.20;;;;;;;10.44;69.96;100250.34;5070603;28;20119;-66
2021/04/11 00:53:05;;;;;;;60.90;44.00;;;;;;;9.63;72.97;100247.91;5070301;28;20107;-66
2021/04/11 00:55:31;;;;;;;59.22;43.88;;;;;;;10.08;71.47;100250.88;5071276;28;20067;-66
2021/04/11 00:57:56;;;;;;;60.22;45.15;;;;;;;10.01;72.63;100244.81;5070017;28;20461;-66
2021/04/11 01:00:25;;;;;;;61.53;44.08;;;;;;;10.14;68.90;100243.75;5070093;28;20063;-66
2021/04/11 01:02:51;;;;;;;56.95;43.65;;;;;;;9.59;73.85;100238.31;5085633;28;20483;-65
2021/04/11 01:05:27;;;;;;;63.78;44.03;;;;;;;10.02;69.88;100228.13;5070466;28;20032;-67
2021/04/11 01:07:54;;;;;;;63.70;46.13;;;;;;;10.48;69.34;100226.59;5052526;28;20095;-66
2021/04/11 01:10:24;;;;;;;62.08;45.65;;;;;;;10.23;69.20;100218.13;5070098;28;20472;-67
2021/04/11 01:12:50;;;;;;;62.25;46.15;;;;;;;8.54;76.40;100217.41;5070170;28;20040;-65
2021/04/11 01:15:33;;;;;;;58.95;45.67;;;;;;;8.25;77.68;100215.84;5070232;28;20369;-66
2021/04/11 01:17:58;;;;;;;64.60;47.92;;;;;;;7.70;80.30;100212.66;5070087;28;20411;-66
2021/04/11 01:20:24;;;;;;;64.18;44.95;;;;;;;9.40;72.99;100207.84;5071520;28;20028;-66
2021/04/11 01:23:02;;;;;;;65.72;47.17;;;;;;;9.92;72.24;100200.16;5070223;28;20028;-66
2021/04/11 01:25:32;;;;;;;59.97;45.50;;;;;;;10.01;69.41;100190.34;5070681;28;20028;-65
2021/04/11 01:27:58;;;;;;;63.30;47.30;;;;;;;9.49;72.51;100202.44;5070017;28;20020;-66
2021/04/11 01:30:32;;;;;;;67.15;48.03;;;;;;;10.02;71.57;100196.50;5071284;28;20032;-65
2021/04/11 01:32:59;;;;;;;64.38;46.53;;;;;;;9.40;75.84;100187.63;5090845;28;20024;-65
2021/04/11 01:35:26;;;;;;;62.15;45.08;;;;;;;8.72;78.48;100190.13;5075344;28;20056;-65
2021/04/11 01:37:54;;;;;;;64.03;46.45;;;;;;;9.29;74.40;100179.00;5073354;28;20029;-66
2021/04/11 01:40:24;;;;;;;62.35;46.63;;;;;;;8.34;76.50;100175.50;5073813;28;20510;-65
2021/04/11 01:42:50;;;;;;;66.13;46.10;;;;;;;8.32;76.58;100180.78;5073759;28;20028;-65
2021/04/11 01:45:15;;;;;;;60.45;47.17;;;;;;;7.89;78.85;100174.06;5056950;28;20032;-65
2021/04/11 01:47:41;;;;;;;64.18;46.00;;;;;;;7.80;79.15;100180.22;5073911;28;20476;-65
2021/04/11 01:50:09;;;;;;;59.92;46.58;;;;;;;8.17;79.75;100170.38;5075089;28;20029;-65
2021/04/11 01:52:35;;;;;;;56.47;45.05;;;;;;;8.20;77.86;100171.22;5073465;28;20060;-66
2021/04/11 01:55:00;;;;;;;58.53;44.58;;;;;;;8.20;78.08;100165.97;5072890;28;20032;-65
2021/04/11 01:57:29;;;;;;;54.75;42.63;;;;;;;8.64;76.63;100160.38;5073576;28;20067;-65
2021/04/11 02:00:06;;;;;;;58.65;45.03;;;;;;;9.00;76.80;100164.44;5072995;28;20055;-65
2021/04/11 02:02:32;;;;;;;55.60;41.95;;;;;;;9.14;75.06;100161.63;5074561;28;20024;-66
2021/04/11 02:04:57;;;;;;;56.85;42.78;;;;;;;9.37;73.16;100164.88;5073538;28;20503;-65
2021/04/11 02:07:23;;;;;;;57.35;44.55;;;;;;;9.82;74.39;100152.88;5074300;28;20151;-66
2021/04/11 02:09:48;;;;;;;56.13;43.38;;;;;;;10.81;70.14;100146.94;5073135;28;20021;-66
2021/04/11 02:12:15;;;;;;;52.10;41.13;;;;;;;10.96;67.02;100147.50;5073128;28;20419;-66
2021/04/11 02:14:42;;;;;;;57.17;43.85;;;;;;;11.00;68.07;100149.19;5038741;28;20025;-66
2021/04/11 02:17:08;;;;;;;58.33;42.58;;;;;;;10.71;69.90;100148.84;5053520;28;20042;-67
2021/04/11 02:19:33;;;;;;;50.70;41.63;;;;;;;11.13;69.06;100145.41;5071208;28;20123;-66
2021/04/11 02:22:19;;;;;;;51.20;39.28;;;;;;;11.03;68.24;100139.47;5069137;28;20032;-66
2021/04/11 02:24:45;;;;;;;54.33;40.83;;;;;;;10.14;70.48;100134.84;5066752;28;20358;-66
2021/04/11 02:27:16;;;;;;;50.92;41.92;;;;;;;10.01;73.90;100131.53;5085089;28;20027;-66
2021/04/11 02:29:45;;;;;;;49.13;40.85;;;;;;;10.44;70.78;100134.34;5072961;28;20025;-66
2021/04/11 02:32:10;;;;;;;53.92;41.60;;;;;;;10.33;71.24;100130.13;5073767;28;20029;-66
2021/04/11 02:34:35;;;;;;;51.83;40.35;;;;;;;10.42;72.32;100125.59;5055744;28;20549;-66
2021/04/11 02:37:02;;;;;;;52.70;39.90;;;;;;;10.79;69.96;100124.97;5072169;28;20461;-66
2021/04/11 02:39:30;;;;;;;53.25;40.78;;;;;;;11.04;67.05;100116.59;5073970;28;20048;-65
2021/04/11 02:41:56;;;;;;;52.50;39.08;;;;;;;10.62;67.17;100112.97;5072098;28;20094;-66
2021/04/11 02:44:22;;;;;;;56.13;40.60;;;;;;;11.09;66.68;100121.75;5072708;28;20020;-66
2021/04/11 02:46:48;;;;;;;51.58;40.17;;;;;;;11.14;64.86;100115.47;5072815;28;20030;-66
2021/04/11 02:49:16;;;;;;;49.67;40.65;;;;;;;10.26;69.06;100118.81;5072200;28;20025;-66
2021/04/11 02:51:42;;;;;;;51.10;39.92;;;;;;;10.12;70.64;100111.16;5072186;28;20043;-66
2021/04/11 02:54:10;;;;;;;55.22;40.03;;;;;;;10.26;70.31;100110.03;5072572;28;20475;-66
2021/04/11 02:56:38;;;;;;;50.28;39.40;;;;;;;10.30;69.77;100111.72;5072693;28;20035;-65
2021/04/11 02:59:03;;;;;;;52.42;41.00;;;;;;;10.27;70.13;100106.50;5072339;28;20111;-66
2021/04/11 03:01:32;;;;;;;51.17;41.63;;;;;;;10.18;72.18;100110.19;5071974;28;20128;-67
2021/04/11 03:03:58;;;;;;;55.42;41.35;;;;;;;10.68;68.19;100113.75;5071911;28;20107;-66
2021/04/11 03:06:27;;;;;;;50.05;42.28;;;;;;;10.75;68.19;100107.47;5071449;28;20105;-66
2021/04/11 03:08:55;;;;;;;53.83;40.70;;;;;;;10.65;67.43;100106.75;5089216;28;20039;-66
2021/04/11 03:11:26;;;;;;;54.63;41.65;;;;;;;10.76;68.98;100101.28;5072237;28;20487;-66
2021/04/11 03:13:54;;;;;;;52.65;42.22;;;;;;;10.76;67.91;100107.44;5073641;28;20036;-66
2021/04/11 03:16:20;;;;;;;52.55;41.08;;;;;;;10.34;69.89;100102.00;5071924;28;20032;-66
2021/04/11 03:18:45;;;;;;;49.47;41.47;;;;;;;10.65;70.08;100109.41;5071928;28;20068;-66
2021/04/11 03:21:11;;;;;;;51.22;41.10;;;;;;;10.61;70.47;100105.09;5071551;28;20055;-66
2021/04/11 03:23:37;;;;;;;52.47;40.88;;;;;;;10.40;68.59;100099.25;5073589;28;20052;-66
2021/04/11 03:26:42;;;;;;;51.78;41.05;;;;;;;10.17;70.55;100104.94;5071550;28;20020;-66
2021/04/11 03:29:14;;;;;;;50.55;40.60;;;;;;;10.60;69.82;100098.09;5039838;28;20110;-66
2021/04/11 03:31:51;;;;;;;56.08;41.70;;;;;;;11.02;67.87;100099.91;5070850;28;20040;-66
2021/04/11 03:34:18;;;;;;;52.03;42.70;;;;;;;11.67;65.76;100097.63;5071765;28;20024;-66
2021/04/11 03:36:43;;;;;;;51.15;40.30;;;;;;;11.33;65.76;100099.25;5071557;28;20028;-66
2021/04/11 03:39:10;;;;;;;50.83;39.13;;;;;;;11.15;67.47;100109.31;5070930;28;20058;-66
2021/04/11 03:41:37;;;;;;;51.55;41.35;;;;;;;11.25;68.23;100101.19;5071833;28;20476;-66
2021/04/11 03:44:08;;;;;;;54.42;41.63;;;;;;;10.84;68.98;100099.34;5071533;28;20029;-66
2021/04/11 03:46:55;;;;;;;52.13;42.28;;;;;;;11.39;67.21;100091.22;5071689;28;20043;-66
2021/04/11 03:49:32;;;;;;;51.83;40.58;;;;;;;11.07;69.17;100108.59;5071576;28;20063;-66
2021/04/11 03:52:01;;;;;;;49.40;39.58;;;;;;;10.68;69.95;100105.84;5070842;28;20139;-66
2021/04/11 03:54:34;;;;;;;49.05;38.22;;;;;;;10.63;69.56;100111.19;5070354;28;20086;-67
2021/04/11 03:57:12;;;;;;;49.40;37.92;;;;;;;10.72;70.32;100104.88;5070889;28;20399;-65
2021/04/11 03:59:42;;;;;;;45.08;38.65;;;;;;;10.67;69.73;100101.47;5071416;28;20219;-66
2021/04/11 04:02:08;;;;;;;41.72;34.53;;;;;;;10.51;69.40;100099.97;5070970;28;20036;-67
2021/04/11 04:04:37;;;;;;;43.15;36.40;;;;;;;10.67;69.69;100097.03;5071062;28;20021;-66
2021/04/11 04:07:12;;;;;;;50.63;38.67;;;;;;;10.68;70.28;100095.28;5070907;28;20431;-66
2021/04/11 04:09:40;;;;;;;48.78;38.63;;;;;;;10.21;71.48;100096.94;5071992;28;20020;-66
2021/04/11 04:12:17;;;;;;;49.50;39.55;;;;;;;10.30;70.84;100090.63;5071198;28;20042;-66
2021/04/11 04:14:55;;;;;;;47.08;36.33;;;;;;;10.56;70.01;100099.88;5072346;28;20533;-66
2021/04/11 04:17:25;;;;;;;50.25;37.75;;;;;;;10.17;70.76;100091.75;5071694;28;20391;-66
2021/04/11 04:20:26;;;;;;;44.58;37.17;;;;;;;10.14;71.82;100090.06;5071724;28;20044;-66
2021/04/11 04:23:09;;;;;;;54.35;39.75;;;;;;;10.24;69.41;100082.84;5070920;28;20493;-66
2021/04/11 04:26:02;;;;;;;47.17;39.53;;;;;;;10.37;70.14;100092.28;5070941;28;20117;-66
2021/04/11 04:28:42;;;;;;;48.95;37.90;;;;;;;9.87;70.82;100087.81;5068274;28;20036;-66
2021/04/11 04:31:28;;;;;;;45.72;38.20;;;;;;;9.86;71.67;100094.00;5069540;28;20021;-65
2021/04/11 04:34:14;;;;;;;46.28;37.88;;;;;;;10.37;70.19;100094.06;5070602;28;20452;-66
2021/04/11 04:37:04;;;;;;;46.50;37.00;;;;;;;10.32;68.43;100094.13;5066763;28;20040;-65
2021/04/11 04:39:34;;;;;;;49.38;39.42;;;;;;;10.57;70.42;100098.97;5050929;28;20481;-66
2021/04/11 04:42:26;;;;;;;47.80;37.72;;;;;;;10.47;70.39;100097.44;5067352;28;20064;-67
2021/04/11 04:44:57;;;;;;;50.10;38.75;;;;;;;10.67;67.87;100098.81;5047725;28;20123;-67
2021/04/11 04:47:42;;;;;;;45.83;37.47;;;;;;;10.38;70.03;100099.28;5076969;28;20028;-66
2021/04/11 04:50:16;;;;;;;52.08;40.60;;;;;;;10.43;68.08;100099.19;5058220;28;20036;-66
2021/04/11 04:52:46;;;;;;;51.17;39.00;;;;;;;10.25;69.76;100093.38;5068575;28;20395;-66
2021/04/11 04:55:17;;;;;;;46.03;37.63;;;;;;;10.22;69.83;100097.81;5069428;28;20083;-66
2021/04/11 04:58:13;;;;;;;48.55;39.08;;;;;;;10.08;70.13;100092.78;5070546;28;20115;-66
2021/04/11 05:00:41;;;;;;;47.20;38.35;;;;;;;9.89;71.50;100090.44;5068700;28;20047;-66
2021/04/11 05:03:16;;;;;;;44.15;37.78;;;;;;;9.99;71.28;100088.53;5077044;28;20032;-65
2021/04/11 05:05:49;;;;;;;47.72;39.13;;;;;;;10.28;70.62;100084.53;5085396;28;20028;-66
2021/04/11 05:08:22;;;;;;;45.25;36.42;;;;;;;10.40;69.63;100075.53;5064509;28;20021;-66
2021/04/11 05:11:01;;;;;;;47.38;37.78;;;;;;;10.31;69.89;100092.41;5086119;28;20434;-66
2021/04/11 05:13:30;;;;;;;43.50;36.78;;;;;;;10.28;70.64;100081.91;5084277;28;20101;-66
2021/04/11 05:16:07;;;;;;;45.75;36.97;;;;;;;10.43;69.67;100080.75;5069726;28;20074;-66
2021/04/11 05:18:37;;;;;;;46.13;36.03;;;;;;;10.74;68.96;100082.00;5070331;28;20036;-66
2021/04/11 05:21:08;;;;;;;44.22;35.22;;;;;;;10.87;70.56;100078.19;5069661;28;20100;-66
2021/04/11 05:23:37;;;;;;;42.05;34.55;;;;;;;11.18;67.98;100073.19;5069599;28;20046;-66
2021/04/11 05:26:13;;;;;;;43.45;34.65;;;;;;;11.22;69.00;100074.88;5061889;28;20111;-66
2021/04/11 05:29:02;;;;;;;41.17;34.10;;;;;;;11.28;67.71;100072.09;5069987;28;20522;-65
2021/04/11 05:31:30;;;;;;;35.65;31.23;;;;;;;11.59;68.02;100070.53;5069439;28;20025;-66
2021/04/11 05:33:56;;;;;;;40.28;32.40;;;;;;;11.56;67.31;100063.56;5070197;28;20052;-66
2021/04/11 05:36:45;;;;;;;41.47;31.92;;;;;;;11.70;66.41;100071.16;5068413;28;20016;-65
2021/04/11 05:39:36;;;;;;;38.78;31.80;;;;;;;12.78;64.79;100057.88;5066831;28;20031;-66
2021/04/11 05:42:23;;;;;;;38.97;33.05;;;;;;;13.41;61.41;100049.84;5051180;28;20025;-66
2021/04/11 05:44:56;;;;;;;36.13;30.67;;;;;;;13.43;62.21;100048.03;5069346;28;20079;-66
2021/04/11 05:47:55;;;;;;;34.95;28.73;;;;;;;13.26;62.31;100050.31;5069514;28;20040;-66
2021/04/11 05:50:25;;;;;;;31.38;27.08;;;;;;;13.18;64.35;100063.81;5068291;28;20119;-66
2021/04/11 05:53:06;;;;;;;33.00;27.83;;;;;;;11.88;66.20;100054.00;5078430;28;20480;-66
2021/04/11 05:55:34;;;;;;;32.50;27.65;;;;;;;11.17;69.02;100051.19;5067431;28;20036;-66
2021/04/11 05:58:04;;;;;;;30.58;26.33;;;;;;;12.08;69.29;100062.38;5068037;28;20040;-68
2021/04/11 06:00:38;;;;;;;28.45;25.35;;;;;;;12.39;67.41;100065.09;5068434;28;20028;-68
2021/04/11 06:03:09;;;;;;;29.38;25.02;;;;;;;12.01;67.45;100065.13;5057786;28;20179;-66
2021/04/11 06:05:51;;;;;;;26.52;23.75;;;;;;;13.32;62.93;100058.09;5069434;28;20059;-66
2021/04/11 06:08:28;;;;;;;27.58;22.42;;;;;;;16.74;52.32;100046.38;5069675;28;20089;-66
2021/04/11 06:11:00;;;;;;;23.42;21.02;;;;;;;19.52;44.68;100048.59;5069558;28;20028;-66
2021/04/11 06:13:47;;;;;;;21.45;19.23;;;;;;;21.14;41.28;100052.44;5067398;28;20445;-67
2021/04/11 06:16:18;;;;;;;20.42;18.17;;;;;;;22.13;41.40;100060.38;5069427;28;20024;-67
2021/04/11 06:18:46;;;;;;;20.42;18.52;;;;;;;24.84;34.06;100057.97;5067037;28;20017;-67
2021/04/11 06:21:35;;;;;;;19.75;17.45;;;;;;;19.99;45.17;100061.97;5073242;28;20060;-67
2021/04/11 06:24:07;;;;;;;20.10;17.80;;;;;;;19.53;44.46;100054.78;5073335;28;20076;-66
2021/04/11 06:26:50;;;;;;;20.48;17.33;;;;;;;17.05;50.75;100050.31;5072594;28;20107;-68
2021/04/11 06:29:21;;;;;;;18.20;16.40;;;;;;;20.95;43.03;100043.84;5072755;28;20380;-67
2021/04/11 06:31:54;;;;;;;19.05;16.48;;;;;;;21.66;41.68;100033.91;5073062;28;20130;-67
2021/04/11 06:34:51;;;;;;;16.75;15.15;;;;;;;26.99;33.34;100045.63;5055262;28;20025;-67
2021/04/11 06:37:19;;;;;;;14.68;13.15;;;;;;;22.93;37.40;100044.22;5072395;28;20028;-67
2021/04/11 06:39:46;;;;;;;15.65;13.93;;;;;;;19.40;43.61;100043.94;5070528;28;20034;-67
2021/04/11 06:42:37;;;;;;;14.45;13.07;;;;;;;17.81;51.33;100045.03;5072186;28;20052;-67
2021/04/11 06:45:18;;;;;;;;;;;;;;;24.35;36.99;100050.88;5083687;28;20047;-67
2021/04/11 06:48:16;;;;;;;14.57;13.18;;;;;;;27.73;29.52;100050.81;5086375;28;19916;-68
2021/04/11 06:51:15;;;;;;;14.45;13.02;;;;;;;31.24;25.70;100053.63;5070927;28;20020;-66
2021/04/11 06:54:09;;;;;;;13.85;12.65;;;;;;;33.08;24.19;100055.38;5067439;28;20137;-67
2021/04/11 06:56:39;;;;;;;12.68;11.52;;;;;;;34.54;21.90;100059.28;5071092;28;20016;-68
2021/04/11 06:59:13;;;;;;;12.15;10.77;;;;;;;33.97;22.72;100050.56;5072263;28;20039;-68
2021/04/11 07:02:03;;;;;;;12.63;11.43;;;;;;;32.43;23.19;100049.00;5072235;28;20033;-67
2021/04/11 07:04:34;;;;;;;11.95;10.75;;;;;;;32.75;22.64;100045.38;5070867;28;20028;-67
2021/04/11 07:07:21;;;;;;;12.77;11.68;;;;;;;35.25;20.36;100048.94;5090695;28;20025;-68
2021/04/11 07:10:11;;;;;;;12.15;11.07;;;;;;;35.30;19.92;100040.09;5076106;28;20021;-67
2021/04/11 07:13:14;;;;;;;12.37;11.10;;;;;;;36.84;18.98;100038.94;5069434;28;20036;-66
2021/04/11 07:16:15;;;;;;;12.15;11.05;;;;;;;36.49;20.28;100044.38;5072826;28;20291;-67
2021/04/11 07:19:00;;;;;;;12.30;10.75;;;;;;;34.17;21.64;100034.53;5070929;28;20475;-68
2021/04/11 07:21:50;;;;;;;11.02;10.02;;;;;;;36.72;18.51;100031.28;5072788;28;20029;-69
2021/04/11 07:25:00;;;;;;;10.65;9.65;;;;;;;37.13;19.18;100030.59;5072775;28;20036;-68
2021/04/11 07:27:46;;;;;;;11.00;10.00;;;;;;;36.11;20.15;100023.63;5078222;28;20407;-68
2021/04/11 07:30:24;;;;;;;10.10;9.07;;;;;;;35.63;20.25;100023.19;5087017;28;20479;-67
2021/04/11 07:33:00;;;;;;;10.98;9.88;;;;;;;35.28;20.43;100025.78;5071118;28;20031;-68
2021/04/11 07:35:51;;;;;;;9.38;8.52;;;;;;;35.06;20.83;100026.53;5073199;28;20036;-67
2021/04/11 07:38:20;;;;;;;10.57;9.57;;;;;;;35.27;20.51;100024.06;5070761;28;20025;-69
2021/04/11 07:40:58;;;;;;;11.00;9.88;;;;;;;35.60;19.57;100017.25;5063445;28;20031;-69
2021/04/11 07:43:33;;;;;;;9.63;8.82;;;;;;;35.95;19.20;100015.47;5075024;28;20028;-69
2021/04/11 07:46:10;;;;;;;9.48;8.57;;;;;;;36.44;19.13;100010.16;5069720;28;20066;-69
2021/04/11 07:49:03;;;;;;;8.93;8.10;;;;;;;36.11;19.23;100013.50;5071569;28;20043;-69
2021/04/11 07:51:50;;;;;;;10.48;8.80;;;;;;;35.87;19.08;100023.00;5070648;28;20020;-68
2021/04/11 07:54:37;;;;;;;9.27;8.45;;;;;;;37.28;19.40;100014.84;5070535;28;20111;-68
2021/04/11 07:57:40;;;;;;;9.18;8.27;;;;;;;36.11;19.77;100012.66;5072531;28;20387;-68
2021/04/11 08:00:24;;;;;;;9.00;8.20;;;;;;;38.12;18.37;100010.91;5076149;28;20534;-68
2021/04/11 08:03:21;;;;;;;9.25;8.45;;;;;;;36.82;19.88;100014.41;5070834;28;20024;-69
2021/04/11 08:05:52;;;;;;;7.97;7.22;;;;;;;37.15;18.23;100025.75;5071710;28;20383;-68
2021/04/11 08:08:56;;;;;;;8.77;7.90;;;;;;;36.60;19.51;100021.88;5071872;28;20029;-69
2021/04/11 08:11:55;;;;;;;7.68;6.97;;;;;;;34.73;20.57;100018.75;5036189;28;20036;-68
2021/04/11 08:14:33;;;;;;;8.13;7.43;;;;;;;36.05;19.56;100028.00;5059897;28;20028;-69
2021/04/11 08:17:13;;;;;;;7.80;6.85;;;;;;;35.60;18.94;100018.09;5070786;28;20081;-69
2021/04/11 08:19:54;;;;;;;8.10;7.32;;;;;;;36.45;20.15;100014.63;5071969;28;20035;-69
2021/04/11 08:22:41;;;;;;;7.93;7.13;;;;;;;34.80;21.39;100021.56;5068571;28;20564;-69
2021/04/11 08:25:49;;;;;;;7.68;6.97;;;;;;;33.34;23.19;100018.69;5071900;28;20419;-68
2021/04/11 08:28:27;;;;;;;8.02;7.15;;;;;;;35.38;21.49;100031.78;5069856;28;20095;-68
2021/04/11 08:31:08;;;;;;;8.48;7.68;;;;;;;34.22;21.93;100023.03;5070313;28;20476;-70
2021/04/11 08:33:51;;;;;;;7.18;6.47;;;;;;;35.37;21.28;100038.28;5066612;28;20050;-67
2021/04/11 08:36:38;;;;;;;7.63;6.93;;;;;;;33.70;21.59;100030.94;5069729;28;20025;-68
2021/04/11 08:39:44;;;;;;;7.93;7.18;;;;;;;35.13;21.92;100034.84;5070457;28;20041;-68
2021/04/11 08:42:31;;;;;;;7.47;6.88;;;;;;;36.85;19.94;100033.22;5070474;28;20032;-69
2021/04/11 08:44:57;;;;;;;8.13;6.82;;;;;;;36.57;19.91;100033.25;5071295;28;20024;-69
2021/04/11 08:47:31;;;;;;;8.27;6.20;;;;;;;35.78;20.17;100030.53;5071906;28;20024;-69
2021/04/11 08:50:01;;;;;;;8.05;6.32;;;;;;;35.57;20.51;100037.66;5069827;28;20111;-69
2021/04/11 08:52:32;;;;;;;;;;;;;;;35.14;21.57;100031.03;5070373;28;20411;-68
2021/04/11 08:55:27;;;;;;;7.05;6.15;;;;;;;33.27;22.30;100025.91;5071555;28;19916;-68
2021/04/11 08:58:12;;;;;;;6.38;5.60;;;;;;;36.49;19.34;100025.16;5070925;28;20031;-70
2021/04/11 09:00:48;;;;;;;6.47;5.55;;;;;;;36.45;20.30;100020.13;5069401;28;20024;-69
2021/04/11 09:03:37;;;;;;;6.20;5.60;;;;;;;36.04;19.24;100027.16;5054146;28;20056;-68
2021/04/11 09:06:30;;;;;;;5.38;4.97;;;;;;;35.06;20.85;100034.75;5069990;28;20025;-68
2021/04/11 09:09:30;;;;;;;5.65;5.25;;;;;;;34.69;22.33;100031.09;5070686;28;20037;-68
2021/04/11 09:12:08;;;;;;;5.63;5.13;;;;;;;35.50;20.91;100036.75;5069523;28;20033;-69
2021/04/11 09:14:57;;;;;;;5.38;4.78;;;;;;;35.36;21.12;100033.00;5069512;28;20107;-69
2021/04/11 09:17:53;;;;;;;5.93;5.13;;;;;;;35.83;22.38;100033.50;5070602;28;20033;-67
2021/04/11 09:20:56;;;;;;;5.28;4.80;;;;;;;34.47;21.24;100038.34;5068610;28;20074;-68
2021/04/11 09:23:33;;;;;;;4.80;4.50;;;;;;;35.43;20.72;100033.94;5071442;28;20528;-69
2021/04/11 09:26:29;;;;;;;5.55;5.05;;;;;;;35.40;20.20;100029.69;5071048;28;20029;-69
2021/04/11 09:29:05;;;;;;;5.30;4.80;;;;;;;36.51;20.32;100018.47;5069172;28;20046;-69
2021/04/11 09:31:35;;;;;;;4.82;4.43;;;;;;;36.20;20.88;100025.19;5070030;28;20103;-68
2021/04/11 09:34:33;;;;;;;5.28;4.68;;;;;;;35.06;20.61;100029.28;5070271;28;20487;-69
2021/04/11 09:37:07;;;;;;;5.72;5.13;;;;;;;35.48;20.52;100026.00;5070919;28;20055;-69
2021/04/11 09:40:01;;;;;;;4.22;3.83;;;;;;;36.18;19.08;100014.41;5071245;28;20040;-69
2021/04/11 09:43:04;;;;;;;4.75;3.97;;;;;;;36.38;19.17;100013.72;5071207;28;20044;-69
2021/04/11 09:45:57;;;;;;;4.35;3.92;;;;;;;35.74;19.41;100010.03;5071634;28;20028;-69
2021/04/11 09:48:48;;;;;;;4.68;3.40;;;;;;;32.62;22.64;100001.44;5070187;28;20067;-69
2021/04/11 09:51:13;;;;;;;7.55;4.78;;;;;;;35.34;21.01;100004.97;5071094;28;20021;-69
2021/04/11 09:53:55;;;;;;;4.87;4.43;;;;;;;36.07;18.79;99995.72;5075237;28;20031;-69
2021/04/11 09:56:54;;;;;;;4.78;4.25;;;;;;;37.28;18.04;99989.22;5074929;28;20287;-68
2021/04/11 09:59:41;;;;;;;6.43;3.90;;;;;;;36.78;18.29;99982.94;5074067;28;20020;-69
2021/04/11 10:02:31;;;;;;;6.82;4.70;;;;;;;36.84;18.14;99986.75;5072742;28;20081;-68
2021/04/11 10:05:05;;;;;;;5.18;3.97;;;;;;;36.39;18.92;99987.97;5074671;28;20123;-69
2021/04/11 10:07:55;;;;;;;3.65;3.35;;;;;;;35.72;19.77;99993.78;5073382;28;20038;-69
2021/04/11 10:10:29;;;;;;;4.32;3.88;;;;;;;35.78;18.66;99970.19;5075008;28;20021;-69
2021/04/11 10:13:32;;;;;;;4.47;4.03;;;;;;;36.74;19.03;99978.03;5073259;28;20063;-69
2021/04/11 10:16:13;;;;;;;3.38;3.08;;;;;;;36.82;18.07;99986.09;5069629;28;20036;-70
2021/04/11 10:18:58;;;;;;;3.05;2.85;;;;;;;36.54;18.72;99984.25;5072533;28;20020;-69
2021/04/11 10:22:01;;;;;;;4.05;3.67;;;;;;;37.01;18.56;99986.38;5061931;28;20093;-69
2021/04/11 10:24:44;;;;;;;3.85;3.55;;;;;;;36.08;19.58;99986.47;5074599;28;20103;-69
2021/04/11 10:27:21;;;;;;;3.85;3.55;;;;;;;36.11;19.93;99991.56;5074629;28;20449;-70
2021/04/11 10:29:47;;;;;;;4.57;3.53;;;;;;;37.07;19.49;99980.91;5072994;28;20039;-70
2021/04/11 10:32:19;;;;;;;4.57;3.42;;;;;;;37.21;19.18;99987.31;5072592;28;20033;-69
2021/04/11 10:34:48;;;;;;;4.18;3.88;;;;;;;37.19;19.10;99985.81;5076432;28;20024;-70
2021/04/11 10:37:30;;;;;;;4.57;4.18;;;;;;;36.58;18.71;99980.88;5076624;28;20028;-69
2021/04/11 10:40:04;;;;;;;6.15;4.13;;;;;;;35.97;19.76;99978.78;5072955;28;20020;-68
2021/04/11 10:42:48;;;;;;;5.13;3.85;;;;;;;35.26;21.46;99978.50;5073897;28;20043;-70
2021/04/11 10:45:22;;;;;;;4.32;3.88;;;;;;;36.57;17.99;99972.84;5074204;28;20043;-70
2021/04/11 10:48:00;;;;;;;4.15;3.85;;;;;;;37.28;19.63;99972.75;5055941;28;20021;-69
2021/04/11 10:50:49;;;;;;;4.22;3.83;;;;;;;37.21;18.97;99984.56;5074204;28;20543;-70
2021/04/11 10:53:26;;;;;;;4.95;4.00;;;;;;;37.58;18.05;99978.69;5072936;28;20073;-69
2021/04/11 10:56:19;;;;;;;4.18;3.42;;;;;;;38.23;17.97;99974.50;5073402;28;20028;-70
2021/04/11 10:59:11;;;;;;;4.13;3.70;;;;;;;37.36;19.02;99967.03;5074026;28;20033;-70
2021/04/11 11:02:02;;;;;;;4.75;3.80;;;;;;;38.52;17.78;99965.94;5073533;28;20089;-70
2021/04/11 11:04:40;;;;;;;5.05;4.65;;;;;;;38.72;17.29;99976.94;5071663;28;20033;-69
2021/04/11 11:07:43;;;;;;;5.68;4.55;;;;;;;36.95;17.79;99969.69;5069623;28;20093;-69
2021/04/11 11:10:21;;;;;;;5.00;4.22;;;;;;;38.51;18.30;99972.53;5055397;28;20507;-70
2021/04/11 11:13:10;;;;;;;5.75;5.28;;;;;;;34.83;20.54;99982.84;5070947;28;20036;-66
2021/04/11 11:15:53;;;;;;;5.45;5.05;;;;;;;33.17;22.17;99978.88;5086032;28;20107;-67
2021/04/11 11:18:39;;;;;;;4.70;4.22;;;;;;;36.00;20.02;99971.00;5055403;28;20120;-68
2021/04/11 11:21:29;;;;;;;5.47;4.18;;;;;;;37.12;19.09;99973.94;5066929;28;20028;-69
2021/04/11 11:24:07;;;;;;;;;;;;;;;36.93;18.26;99971.78;5051385;28;20032;-67
2021/04/11 11:26:55;;;;;;;4.72;4.28;;;;;;;36.81;19.33;99973.41;5069354;28;19920;-68
2021/04/11 11:29:39;;;;;;;3.80;3.50;;;;;;;37.99;19.52;99968.59;5069603;28;20119;-67
2021/04/11 11:32:13;;;;;;;3.83;3.08;;;;;;;37.52;18.70;99973.19;5068505;28;20038;-69
2021/04/11 11:35:01;;;;;;;4.47;3.53;;;;;;;37.63;19.15;99969.81;5052852;28;20036;-69
2021/04/11 11:37:41;;;;;;;5.03;4.18;;;;;;;36.91;18.86;99973.03;5041137;28;20554;-69
2021/04/11 11:40:15;;;;;;;4.88;3.95;;;;;;;34.92;19.33;99978.97;5069152;28;20109;-69
2021/04/11 11:42:43;;;;;;;4.13;3.72;;;;;;;36.31;19.71;99968.91;5068391;28;20051;-68
2021/04/11 11:45:27;;;;;;;4.07;3.65;;;;;;;35.45;19.44;99955.13;5068139;28;20037;-68
2021/04/11 11:48:20;;;;;;;4.15;3.85;;;;;;;36.84;18.88;99946.38;5068340;28;20111;-68
2021/04/11 11:51:01;;;;;;;5.38;3.95;;;;;;;33.38;20.14;99950.88;5069085;28;20537;-67
2021/04/11 11:53:34;;;;;;;4.85;4.22;;;;;;;34.74;21.08;99960.19;5070152;28;20036;-69
2021/04/11 11:56:13;;;;;;;4.97;3.55;;;;;;;33.48;21.88;99945.19;5068812;28;20031;-69
2021/04/11 11:58:45;;;;;;;4.97;4.43;;;;;;;31.53;22.82;99946.13;5068252;28;20536;-68
2021/04/11 12:01:38;;;;;;;5.07;3.85;;;;;;;33.61;21.57;99950.88;5066606;28;20147;-67
2021/04/11 12:04:14;;;;;;;5.53;4.22;;;;;;;33.49;22.50;99953.19;5061367;28;20047;-67
2021/04/11 12:06:47;;;;;;;4.07;3.70;;;;;;;33.58;21.37;99950.41;5075244;28;20062;-67